createdAt,value
2018-11-22T12:17:16.761Z,36.50
2018-11-22T12:19:46.700Z,36.23
2018-11-22T12:22:17.651Z,36.23
2018-11-22T12:24:48.554Z,36.10
2018-11-22T12:27:18.697Z,34.87
2018-11-22T12:29:50.805Z,33.13
2018-11-22T12:32:35.107Z,34.97
2018-11-22T12:35:12.720Z,32.93
2018-11-22T12:37:46.293Z,32.10
2018-11-22T12:40:19.150Z,35.00
2018-11-22T12:42:50.729Z,32.30
2018-11-22T12:45:23.390Z,32.20
2018-11-22T12:47:56.976Z,31.97
2018-11-22T12:50:32.583Z,30.80
2018-11-22T12:53:06.983Z,33.83
2018-11-22T12:55:39.300Z,31.70
2018-11-22T12:58:11.920Z,33.00
2018-11-22T13:00:44.068Z,35.57
2018-11-22T13:03:14.458Z,35.60
2018-11-22T13:05:45.424Z,33.13
2018-11-22T13:08:18.778Z,36.20
2018-11-22T13:10:50.054Z,35.97
2018-11-22T13:13:22.901Z,36.17
2018-11-22T13:15:57.014Z,34.10
2018-11-22T13:18:27.888Z,34.20
2018-11-22T13:21:02.959Z,31.33
2018-11-22T13:23:36.041Z,33.30
2018-11-22T13:26:12.054Z,35.47
2018-11-22T13:28:44.430Z,35.47
2018-11-22T13:31:15.247Z,33.93
2018-11-22T13:33:46.732Z,32.93
2018-11-22T13:36:19.133Z,33.50
2018-11-22T13:38:50.143Z,34.90
2018-11-22T13:41:21.176Z,36.20
2018-11-22T13:43:57.992Z,37.07
2018-11-22T13:46:33.628Z,35.40
2018-11-22T13:49:10.659Z,37.70
2018-11-22T13:51:41.275Z,37.10
2018-11-22T13:54:11.782Z,37.80
2018-11-22T13:56:42.144Z,40.00
2018-11-22T13:59:13.432Z,38.87
2018-11-22T14:01:46.228Z,40.17
2018-11-22T14:04:17.107Z,41.87
2018-11-22T14:06:48.568Z,39.47
2018-11-22T14:09:19.231Z,39.57
2018-11-22T14:11:49.126Z,39.73
2018-11-22T14:14:20.259Z,38.47
2018-11-22T14:16:51.170Z,38.57
2018-11-22T14:19:21.746Z,39.93
2018-11-22T14:21:53.339Z,39.47
2018-11-22T14:24:23.584Z,42.80
2018-11-22T14:26:55.462Z,41.07
2018-11-22T14:29:28.238Z,38.37
2018-11-22T14:32:01.570Z,39.77
2018-11-22T14:34:35.607Z,39.30
2018-11-22T14:37:09.227Z,38.00
2018-11-22T14:39:43.159Z,37.40
2018-11-22T14:42:13.566Z,39.50
2018-11-22T14:44:43.631Z,38.20
2018-11-22T14:47:13.814Z,41.33
2018-11-22T14:49:44.506Z,37.23
2018-11-22T14:52:15.892Z,37.77
2018-11-22T14:54:47.611Z,37.70
2018-11-22T14:57:20.091Z,38.63
2018-11-22T14:59:52.675Z,36.97
2018-11-22T15:02:24.593Z,37.47
2018-11-22T15:04:58.314Z,39.77
2018-11-22T15:07:28.909Z,38.00
2018-11-22T15:10:00.045Z,38.70
2018-11-22T15:12:31.249Z,38.17
2018-11-22T15:15:03.892Z,39.30
2018-11-22T15:17:35.319Z,39.90
2018-11-22T15:20:08.751Z,42.43
2018-11-22T15:22:41.157Z,40.53
2018-11-22T15:25:15.150Z,43.00
2018-11-22T15:27:47.564Z,41.80
2018-11-22T15:30:20.600Z,40.90
2018-11-22T15:32:54.264Z,40.30
2018-11-22T15:35:29.756Z,40.63
2018-11-22T15:38:01.361Z,40.80
2018-11-22T15:40:34.054Z,39.30
2018-11-22T15:43:06.355Z,41.77
2018-11-22T15:45:38.369Z,42.30
2018-11-22T15:48:12.231Z,42.73
2018-11-22T15:50:43.295Z,42.40
2018-11-22T15:53:14.743Z,43.10
2018-11-22T15:55:45.304Z,42.10
2018-11-22T15:58:15.790Z,41.60
2018-11-22T16:00:51.107Z,41.80
2018-11-22T16:03:22.869Z,44.10
2018-11-22T16:05:53.394Z,41.90
2018-11-22T16:08:27.276Z,43.20
2018-11-22T16:11:00.181Z,41.57
2018-11-22T16:13:33.322Z,42.77
2018-11-22T16:16:04.814Z,43.20
2018-11-22T16:18:36.832Z,45.77
2018-11-22T16:21:06.930Z,41.77
2018-11-22T16:23:36.924Z,43.07
2018-11-22T16:26:06.687Z,43.30
2018-11-22T16:28:38.137Z,43.27
2018-11-22T16:31:09.684Z,39.27
2018-11-22T16:33:42.548Z,44.70
2018-11-22T16:36:13.060Z,41.00
2018-11-22T16:38:44.956Z,42.13
2018-11-22T16:41:15.471Z,42.17
2018-11-22T16:43:45.542Z,41.77
2018-11-22T16:46:16.338Z,41.67
2018-11-22T16:48:47.089Z,41.03
2018-11-22T16:51:19.607Z,40.33
2018-11-22T16:53:53.343Z,41.87
2018-11-22T16:56:24.415Z,40.47
2018-11-22T16:58:56.208Z,40.13
2018-11-22T17:01:27.896Z,40.03
2018-11-22T17:03:59.682Z,39.87
2018-11-22T17:06:33.495Z,42.37
2018-11-22T17:09:05.665Z,40.03
2018-11-22T17:11:38.670Z,38.90
2018-11-22T17:14:11.136Z,40.73
2018-11-22T17:16:44.216Z,42.07
2018-11-22T17:19:15.287Z,41.13
2018-11-22T17:21:48.222Z,41.87
2018-11-22T17:24:20.235Z,40.43
2018-11-22T17:26:52.667Z,36.53
2018-11-22T17:29:25.150Z,38.27
2018-11-22T17:31:55.427Z,37.93
2018-11-22T17:34:25.029Z,37.27
2018-11-22T17:36:58.217Z,37.50
2018-11-22T17:39:31.577Z,35.87
2018-11-22T17:42:02.189Z,36.17
2018-11-22T17:44:32.237Z,35.13
2018-11-22T17:47:02.692Z,36.33
2018-11-22T17:49:35.327Z,35.60
2018-11-22T17:52:10.649Z,36.97
2018-11-22T17:54:42.572Z,37.93
2018-11-22T17:57:14.975Z,37.30
2018-11-22T17:59:48.534Z,37.60
2018-11-22T18:02:19.525Z,35.90
2018-11-22T18:04:51.463Z,35.43
2018-11-22T18:07:24.406Z,34.20
2018-11-22T18:09:57.359Z,36.53
2018-11-22T18:12:28.235Z,36.53
2018-11-22T18:15:04.399Z,34.27
2018-11-22T18:17:35.192Z,36.70
2018-11-22T18:20:10.242Z,35.47
2018-11-22T18:22:42.686Z,37.30
2018-11-22T18:25:14.845Z,38.23
2018-11-22T18:27:44.512Z,33.30
2018-11-22T18:30:17.498Z,37.20
2018-11-22T18:32:49.899Z,36.60
2018-11-22T18:35:21.348Z,33.53
2018-11-22T18:37:53.207Z,33.23
2018-11-22T18:40:26.605Z,32.43
2018-11-22T18:42:59.099Z,34.07
2018-11-22T18:45:34.506Z,31.67
2018-11-22T18:48:08.765Z,30.80
2018-11-22T18:50:40.443Z,29.80
2018-11-22T18:53:13.388Z,30.13
2018-11-22T18:55:49.971Z,30.13
2018-11-22T18:58:25.389Z,29.13
2018-11-22T19:00:55.355Z,30.50
2018-11-22T19:03:27.762Z,31.13
2018-11-22T19:06:01.212Z,30.50
2018-11-22T19:08:34.199Z,30.40
2018-11-22T19:11:07.236Z,29.63
2018-11-22T19:13:40.191Z,29.70
2018-11-22T19:16:13.808Z,29.87
2018-11-22T19:18:45.937Z,30.10
2018-11-22T19:21:17.834Z,31.40
2018-11-22T19:23:49.647Z,31.00
2018-11-22T19:26:22.641Z,31.93
2018-11-22T19:28:54.178Z,32.07
2018-11-22T19:31:24.000Z,30.40
2018-11-22T19:33:54.503Z,32.37
2018-11-22T19:36:26.276Z,32.10
2018-11-22T19:38:59.770Z,33.07
2018-11-22T19:41:35.553Z,33.57
2018-11-22T19:44:06.725Z,33.13
2018-11-22T19:46:38.240Z,31.17
2018-11-22T19:49:10.404Z,30.60
2018-11-22T19:51:40.866Z,33.33
2018-11-22T19:54:13.622Z,31.43
2018-11-22T19:56:45.800Z,30.70
2018-11-22T19:59:15.715Z,31.57
2018-11-22T20:01:45.772Z,29.30
2018-11-22T20:04:16.266Z,29.10
2018-11-22T20:06:49.825Z,28.13
2018-11-22T20:09:22.287Z,27.93
2018-11-22T20:11:54.590Z,27.53
2018-11-22T20:14:26.882Z,25.23
2018-11-22T20:16:58.974Z,25.37
2018-11-22T20:19:36.317Z,24.40
2018-11-22T20:22:06.506Z,23.40
2018-11-22T20:24:40.042Z,23.97
2018-11-22T20:27:13.995Z,22.70
2018-11-22T20:29:46.051Z,22.33
2018-11-22T20:32:16.740Z,22.13
2018-11-22T20:34:47.118Z,22.77
2018-11-22T20:37:16.837Z,21.93
2018-11-22T20:39:47.668Z,20.17
2018-11-22T20:42:17.763Z,20.67
2018-11-22T20:44:47.913Z,18.60
2018-11-22T20:47:18.405Z,21.10
2018-11-22T20:49:48.646Z,18.97
2018-11-22T20:52:19.518Z,20.77
2018-11-22T20:54:49.482Z,19.47
2018-11-22T20:57:20.140Z,19.00
2018-11-22T20:59:49.892Z,18.23
2018-11-22T21:02:20.776Z,18.60
2018-11-22T21:04:52.023Z,17.70
2018-11-22T21:07:24.007Z,16.63
2018-11-22T21:09:55.186Z,17.20
2018-11-22T21:12:27.130Z,17.33
2018-11-22T21:14:58.147Z,16.60
2018-11-22T21:17:28.189Z,17.47
2018-11-22T21:19:59.651Z,15.77
2018-11-22T21:22:29.234Z,15.13
2018-11-22T21:24:59.230Z,14.90
2018-11-22T21:27:29.986Z,15.20
2018-11-22T21:30:03.993Z,16.43
2018-11-22T21:32:34.785Z,15.50
2018-11-22T21:35:07.433Z,12.83
2018-11-22T21:37:37.392Z,13.70
2018-11-22T21:40:08.164Z,15.10
2018-11-22T21:42:42.703Z,13.77
2018-11-22T21:45:20.778Z,12.30
2018-11-22T21:47:51.699Z,12.13
2018-11-22T21:50:26.881Z,13.30
2018-11-22T21:52:58.792Z,12.70
2018-11-22T21:55:29.961Z,12.27
2018-11-22T21:58:03.153Z,12.67
2018-11-22T22:00:38.033Z,12.10
2018-11-22T22:03:11.784Z,11.87
2018-11-22T22:05:42.770Z,12.50
2018-11-22T22:08:13.643Z,12.83
2018-11-22T22:10:45.137Z,12.50
2018-11-22T22:13:15.330Z,11.73
2018-11-22T22:15:45.659Z,12.80
2018-11-22T22:18:21.121Z,13.20
2018-11-22T22:20:51.427Z,11.73
2018-11-22T22:23:27.150Z,13.13
2018-11-22T22:25:59.322Z,12.60
2018-11-22T22:28:30.757Z,12.37
2018-11-22T22:31:04.009Z,13.07
2018-11-22T22:33:36.562Z,12.63
2018-11-22T22:36:06.770Z,11.90
2018-11-22T22:38:37.803Z,13.57
2018-11-22T22:41:07.434Z,12.90
2018-11-22T22:43:38.362Z,14.17
2018-11-22T22:46:13.139Z,15.10
2018-11-22T22:48:44.529Z,15.30
2018-11-22T22:51:16.343Z,15.00
2018-11-22T22:53:48.411Z,14.83
2018-11-22T22:56:20.449Z,14.20
2018-11-22T22:58:51.612Z,14.33
2018-11-22T23:01:21.391Z,13.83
2018-11-22T23:03:52.302Z,15.30
2018-11-22T23:06:22.518Z,14.97
2018-11-22T23:08:52.838Z,16.13
2018-11-22T23:11:29.809Z,15.10
2018-11-22T23:14:02.711Z,16.07
2018-11-22T23:16:32.816Z,17.17
2018-11-22T23:19:04.409Z,14.60
2018-11-22T23:21:36.959Z,15.53
2018-11-22T23:24:07.523Z,16.83
2018-11-22T23:26:38.646Z,15.73
2018-11-22T23:29:10.812Z,16.53
2018-11-22T23:31:42.329Z,16.57
2018-11-22T23:34:16.591Z,17.87
2018-11-22T23:36:46.621Z,17.33
2018-11-22T23:39:18.504Z,17.83
2018-11-22T23:41:50.391Z,17.90
2018-11-22T23:44:21.746Z,17.70
2018-11-22T23:46:52.687Z,17.70
2018-11-22T23:49:27.884Z,17.87
2018-11-22T23:51:57.827Z,17.70
2018-11-22T23:54:28.733Z,17.87
2018-11-22T23:56:59.044Z,18.50
2018-11-22T23:59:29.658Z,18.50
